sensor_id;sensor_type;location;lat;lon;timestamp;P1;durP1;ratioP1;P2;durP2;ratioP2
20090;SDS011;10205;49.678;6.560;2024-03-25T00:01:13;2.60;;;2.20;;
20090;SDS011;10205;49.678;6.560;2024-03-25T00:03:39;3.58;;;2.42;;
20090;SDS011;10205;49.678;6.560;2024-03-25T00:06:04;3.00;;;2.10;;
20090;SDS011;10205;49.678;6.560;2024-03-25T00:08:31;3.05;;;2.22;;
20090;SDS011;10205;49.678;6.560;2024-03-25T00:10:57;3.60;;;2.20;;
20090;SDS011;10205;49.678;6.560;2024-03-25T00:13:22;4.35;;;2.50;;
20090;SDS011;10205;49.678;6.560;2024-03-25T00:15:48;2.77;;;2.03;;
20090;SDS011;10205;49.678;6.560;2024-03-25T00:18:14;2.58;;;2.20;;
20090;SDS011;10205;49.678;6.560;2024-03-25T00:20:39;2.67;;;2.00;;
20090;SDS011;10205;49.678;6.560;2024-03-25T00:23:05;2.70;;;2.03;;
20090;SDS011;10205;49.678;6.560;2024-03-25T00:25:32;2.47;;;2.15;;
20090;SDS011;10205;49.678;6.560;2024-03-25T00:27:57;3.00;;;2.10;;
20090;SDS011;10205;49.678;6.560;2024-03-25T00:30:23;3.65;;;2.28;;
20090;SDS011;10205;49.678;6.560;2024-03-25T00:32:49;2.72;;;2.22;;
20090;SDS011;10205;49.678;6.560;2024-03-25T00:35:14;3.47;;;2.27;;
20090;SDS011;10205;49.678;6.560;2024-03-25T00:37:40;2.90;;;2.60;;
20090;SDS011;10205;49.678;6.560;2024-03-25T00:40:06;2.37;;;2.07;;
20090;SDS011;10205;49.678;6.560;2024-03-25T00:42:32;3.00;;;2.33;;
20090;SDS011;10205;49.678;6.560;2024-03-25T00:44:58;3.13;;;2.17;;
20090;SDS011;10205;49.678;6.560;2024-03-25T00:47:24;2.35;;;2.00;;
20090;SDS011;10205;49.678;6.560;2024-03-25T00:49:50;3.15;;;2.20;;
20090;SDS011;10205;49.678;6.560;2024-03-25T00:52:16;4.75;;;2.20;;
20090;SDS011;10205;49.678;6.560;2024-03-25T00:54:41;3.67;;;2.40;;
20090;SDS011;10205;49.678;6.560;2024-03-25T00:57:07;2.42;;;2.10;;
20090;SDS011;10205;49.678;6.560;2024-03-25T00:59:33;2.60;;;2.00;;
20090;SDS011;10205;49.678;6.560;2024-03-25T01:01:58;2.67;;;2.10;;
20090;SDS011;10205;49.678;6.560;2024-03-25T01:04:24;3.38;;;2.25;;
20090;SDS011;10205;49.678;6.560;2024-03-25T01:06:50;3.03;;;2.10;;
20090;SDS011;10205;49.678;6.560;2024-03-25T01:09:15;3.75;;;2.30;;
20090;SDS011;10205;49.678;6.560;2024-03-25T01:11:41;2.43;;;2.17;;
20090;SDS011;10205;49.678;6.560;2024-03-25T01:14:07;4.05;;;2.75;;
20090;SDS011;10205;49.678;6.560;2024-03-25T01:16:32;4.30;;;2.20;;
20090;SDS011;10205;49.678;6.560;2024-03-25T01:18:58;4.22;;;2.63;;
20090;SDS011;10205;49.678;6.560;2024-03-25T01:21:24;3.20;;;2.10;;
20090;SDS011;10205;49.678;6.560;2024-03-25T01:23:50;2.55;;;2.20;;
20090;SDS011;10205;49.678;6.560;2024-03-25T01:26:15;2.97;;;2.10;;
20090;SDS011;10205;49.678;6.560;2024-03-25T01:28:41;4.28;;;2.13;;
20090;SDS011;10205;49.678;6.560;2024-03-25T01:31:07;3.67;;;2.30;;
20090;SDS011;10205;49.678;6.560;2024-03-25T01:33:33;3.22;;;2.47;;
20090;SDS011;10205;49.678;6.560;2024-03-25T01:36:00;3.17;;;2.10;;
20090;SDS011;10205;49.678;6.560;2024-03-25T01:38:26;2.80;;;2.50;;
20090;SDS011;10205;49.678;6.560;2024-03-25T01:40:52;3.87;;;2.30;;
20090;SDS011;10205;49.678;6.560;2024-03-25T01:43:17;2.55;;;2.25;;
20090;SDS011;10205;49.678;6.560;2024-03-25T01:45:43;3.30;;;2.20;;
20090;SDS011;10205;49.678;6.560;2024-03-25T01:48:09;2.35;;;2.10;;
20090;SDS011;10205;49.678;6.560;2024-03-25T01:50:39;2.88;;;2.10;;
20090;SDS011;10205;49.678;6.560;2024-03-25T01:53:06;4.45;;;2.45;;
20090;SDS011;10205;49.678;6.560;2024-03-25T01:55:33;2.40;;;2.10;;
20090;SDS011;10205;49.678;6.560;2024-03-25T01:58:01;2.35;;;2.15;;
20090;SDS011;10205;49.678;6.560;2024-03-25T02:00:27;3.53;;;2.67;;
20090;SDS011;10205;49.678;6.560;2024-03-25T02:02:53;2.73;;;2.37;;
20090;SDS011;10205;49.678;6.560;2024-03-25T02:05:19;3.00;;;2.45;;
20090;SDS011;10205;49.678;6.560;2024-03-25T02:07:45;2.75;;;2.22;;
20090;SDS011;10205;49.678;6.560;2024-03-25T02:10:12;2.50;;;2.30;;
20090;SDS011;10205;49.678;6.560;2024-03-25T02:12:40;3.03;;;2.22;;
20090;SDS011;10205;49.678;6.560;2024-03-25T02:15:07;3.40;;;2.10;;
20090;SDS011;10205;49.678;6.560;2024-03-25T02:17:33;2.40;;;2.20;;
20090;SDS011;10205;49.678;6.560;2024-03-25T02:19:59;4.40;;;2.60;;
20090;SDS011;10205;49.678;6.560;2024-03-25T02:22:25;2.00;;;1.80;;
20090;SDS011;10205;49.678;6.560;2024-03-25T02:24:52;3.63;;;2.30;;
20090;SDS011;10205;49.678;6.560;2024-03-25T02:27:21;3.67;;;2.20;;
20090;SDS011;10205;49.678;6.560;2024-03-25T02:29:47;2.63;;;2.40;;
20090;SDS011;10205;49.678;6.560;2024-03-25T02:32:13;4.05;;;2.20;;
20090;SDS011;10205;49.678;6.560;2024-03-25T02:34:39;2.60;;;2.13;;
20090;SDS011;10205;49.678;6.560;2024-03-25T02:37:06;2.90;;;2.17;;
20090;SDS011;10205;49.678;6.560;2024-03-25T02:39:32;3.03;;;2.13;;
20090;SDS011;10205;49.678;6.560;2024-03-25T02:41:58;3.88;;;2.30;;
20090;SDS011;10205;49.678;6.560;2024-03-25T02:44:24;3.00;;;2.42;;
20090;SDS011;10205;49.678;6.560;2024-03-25T02:46:50;2.50;;;2.30;;
20090;SDS011;10205;49.678;6.560;2024-03-25T02:49:17;3.27;;;2.50;;
20090;SDS011;10205;49.678;6.560;2024-03-25T02:51:42;2.60;;;2.40;;
20090;SDS011;10205;49.678;6.560;2024-03-25T02:54:08;4.50;;;2.60;;
20090;SDS011;10205;49.678;6.560;2024-03-25T02:56:34;3.75;;;2.22;;
20090;SDS011;10205;49.678;6.560;2024-03-25T02:59:00;4.30;;;3.10;;
20090;SDS011;10205;49.678;6.560;2024-03-25T03:01:26;4.27;;;2.57;;
20090;SDS011;10205;49.678;6.560;2024-03-25T03:03:52;2.90;;;2.25;;
20090;SDS011;10205;49.678;6.560;2024-03-25T03:06:17;2.83;;;2.40;;
20090;SDS011;10205;49.678;6.560;2024-03-25T03:08:43;3.20;;;2.40;;
20090;SDS011;10205;49.678;6.560;2024-03-25T03:11:09;2.53;;;2.20;;
20090;SDS011;10205;49.678;6.560;2024-03-25T03:13:35;3.08;;;2.13;;
20090;SDS011;10205;49.678;6.560;2024-03-25T03:16:00;2.87;;;2.30;;
20090;SDS011;10205;49.678;6.560;2024-03-25T03:18:26;2.88;;;2.05;;
20090;SDS011;10205;49.678;6.560;2024-03-25T03:20:52;2.88;;;2.40;;
20090;SDS011;10205;49.678;6.560;2024-03-25T03:23:20;2.92;;;2.30;;
20090;SDS011;10205;49.678;6.560;2024-03-25T03:25:46;3.45;;;2.40;;
20090;SDS011;10205;49.678;6.560;2024-03-25T03:28:12;2.43;;;2.17;;
20090;SDS011;10205;49.678;6.560;2024-03-25T03:30:37;2.50;;;2.30;;
20090;SDS011;10205;49.678;6.560;2024-03-25T03:33:03;2.40;;;2.20;;
20090;SDS011;10205;49.678;6.560;2024-03-25T03:35:28;2.50;;;2.30;;
20090;SDS011;10205;49.678;6.560;2024-03-25T03:37:54;3.58;;;2.65;;
20090;SDS011;10205;49.678;6.560;2024-03-25T03:40:20;2.73;;;2.43;;
20090;SDS011;10205;49.678;6.560;2024-03-25T03:42:45;2.80;;;2.50;;
20090;SDS011;10205;49.678;6.560;2024-03-25T03:45:11;3.33;;;2.53;;
20090;SDS011;10205;49.678;6.560;2024-03-25T03:47:37;2.70;;;2.10;;
20090;SDS011;10205;49.678;6.560;2024-03-25T03:50:03;4.72;;;3.17;;
20090;SDS011;10205;49.678;6.560;2024-03-25T03:52:29;4.35;;;2.85;;
20090;SDS011;10205;49.678;6.560;2024-03-25T03:54:54;4.60;;;2.97;;
20090;SDS011;10205;49.678;6.560;2024-03-25T03:57:20;2.97;;;2.63;;
20090;SDS011;10205;49.678;6.560;2024-03-25T03:59:45;3.30;;;2.50;;
20090;SDS011;10205;49.678;6.560;2024-03-25T04:02:11;3.58;;;2.63;;
20090;SDS011;10205;49.678;6.560;2024-03-25T04:04:36;2.70;;;2.33;;
20090;SDS011;10205;49.678;6.560;2024-03-25T04:07:02;3.22;;;2.45;;
20090;SDS011;10205;49.678;6.560;2024-03-25T04:09:27;2.73;;;2.43;;
20090;SDS011;10205;49.678;6.560;2024-03-25T04:11:56;3.23;;;2.50;;
20090;SDS011;10205;49.678;6.560;2024-03-25T04:14:21;2.90;;;2.60;;
20090;SDS011;10205;49.678;6.560;2024-03-25T04:16:47;3.70;;;2.87;;
20090;SDS011;10205;49.678;6.560;2024-03-25T04:19:12;2.60;;;2.40;;
20090;SDS011;10205;49.678;6.560;2024-03-25T04:21:38;2.90;;;2.60;;
20090;SDS011;10205;49.678;6.560;2024-03-25T04:24:04;2.97;;;2.63;;
20090;SDS011;10205;49.678;6.560;2024-03-25T04:26:30;3.58;;;2.30;;
20090;SDS011;10205;49.678;6.560;2024-03-25T04:28:56;3.00;;;2.58;;
20090;SDS011;10205;49.678;6.560;2024-03-25T04:31:22;2.57;;;2.37;;
20090;SDS011;10205;49.678;6.560;2024-03-25T04:33:47;3.45;;;2.58;;
20090;SDS011;10205;49.678;6.560;2024-03-25T04:36:13;2.87;;;2.67;;
20090;SDS011;10205;49.678;6.560;2024-03-25T04:38:39;2.75;;;2.40;;
20090;SDS011;10205;49.678;6.560;2024-03-25T04:41:04;3.07;;;2.40;;
20090;SDS011;10205;49.678;6.560;2024-03-25T04:43:30;3.05;;;2.75;;
20090;SDS011;10205;49.678;6.560;2024-03-25T04:45:55;3.20;;;2.30;;
20090;SDS011;10205;49.678;6.560;2024-03-25T04:48:21;2.90;;;2.60;;
20090;SDS011;10205;49.678;6.560;2024-03-25T04:50:46;2.97;;;2.50;;
20090;SDS011;10205;49.678;6.560;2024-03-25T04:53:12;2.77;;;2.50;;
20090;SDS011;10205;49.678;6.560;2024-03-25T04:55:37;3.17;;;2.37;;
20090;SDS011;10205;49.678;6.560;2024-03-25T04:58:03;2.90;;;2.30;;
20090;SDS011;10205;49.678;6.560;2024-03-25T05:00:29;2.75;;;2.33;;
20090;SDS011;10205;49.678;6.560;2024-03-25T05:02:54;2.47;;;2.27;;
20090;SDS011;10205;49.678;6.560;2024-03-25T05:05:20;2.95;;;2.60;;
20090;SDS011;10205;49.678;6.560;2024-03-25T05:07:46;3.20;;;2.38;;
20090;SDS011;10205;49.678;6.560;2024-03-25T05:10:11;2.50;;;2.30;;
20090;SDS011;10205;49.678;6.560;2024-03-25T05:12:38;3.05;;;2.30;;
20090;SDS011;10205;49.678;6.560;2024-03-25T05:15:03;3.63;;;2.80;;
20090;SDS011;10205;49.678;6.560;2024-03-25T05:17:30;2.92;;;2.45;;
20090;SDS011;10205;49.678;6.560;2024-03-25T05:19:56;2.60;;;2.40;;
20090;SDS011;10205;49.678;6.560;2024-03-25T05:22:22;2.80;;;2.20;;
20090;SDS011;10205;49.678;6.560;2024-03-25T05:24:47;2.67;;;2.25;;
20090;SDS011;10205;49.678;6.560;2024-03-25T05:27:13;3.63;;;2.50;;
20090;SDS011;10205;49.678;6.560;2024-03-25T05:29:38;2.70;;;2.42;;
20090;SDS011;10205;49.678;6.560;2024-03-25T05:32:04;2.87;;;2.67;;
20090;SDS011;10205;49.678;6.560;2024-03-25T05:34:30;3.47;;;2.67;;
20090;SDS011;10205;49.678;6.560;2024-03-25T05:36:56;3.20;;;2.42;;
20090;SDS011;10205;49.678;6.560;2024-03-25T05:39:22;3.30;;;2.60;;
20090;SDS011;10205;49.678;6.560;2024-03-25T05:41:48;5.00;;;3.35;;
20090;SDS011;10205;49.678;6.560;2024-03-25T05:44:13;2.80;;;2.50;;
20090;SDS011;10205;49.678;6.560;2024-03-25T05:46:39;3.00;;;2.40;;
20090;SDS011;10205;49.678;6.560;2024-03-25T05:49:06;3.00;;;2.70;;
20090;SDS011;10205;49.678;6.560;2024-03-25T05:51:31;3.13;;;2.80;;
20090;SDS011;10205;49.678;6.560;2024-03-25T05:54:01;4.28;;;2.80;;
20090;SDS011;10205;49.678;6.560;2024-03-25T05:56:26;3.00;;;2.40;;
20090;SDS011;10205;49.678;6.560;2024-03-25T05:58:58;3.75;;;2.67;;
20090;SDS011;10205;49.678;6.560;2024-03-25T06:01:24;3.40;;;2.83;;
20090;SDS011;10205;49.678;6.560;2024-03-25T06:03:51;3.00;;;2.70;;
20090;SDS011;10205;49.678;6.560;2024-03-25T06:06:18;3.88;;;2.90;;
20090;SDS011;10205;49.678;6.560;2024-03-25T06:08:44;3.53;;;3.20;;
20090;SDS011;10205;49.678;6.560;2024-03-25T06:11:09;5.30;;;3.20;;
20090;SDS011;10205;49.678;6.560;2024-03-25T06:13:35;4.40;;;3.60;;
20090;SDS011;10205;49.678;6.560;2024-03-25T06:16:01;3.43;;;3.13;;
20090;SDS011;10205;49.678;6.560;2024-03-25T06:18:26;4.57;;;3.00;;
20090;SDS011;10205;49.678;6.560;2024-03-25T06:20:52;4.13;;;3.20;;
20090;SDS011;10205;49.678;6.560;2024-03-25T06:25:50;3.42;;;3.13;;
20090;SDS011;10205;49.678;6.560;2024-03-25T06:28:16;4.10;;;3.05;;
20090;SDS011;10205;49.678;6.560;2024-03-25T06:30:41;3.57;;;2.87;;
20090;SDS011;10205;49.678;6.560;2024-03-25T06:33:26;3.55;;;2.97;;
20090;SDS011;10205;49.678;6.560;2024-03-25T06:36:10;3.85;;;3.15;;
20090;SDS011;10205;49.678;6.560;2024-03-25T06:38:35;4.10;;;2.90;;
20090;SDS011;10205;49.678;6.560;2024-03-25T06:41:01;4.53;;;3.20;;
20090;SDS011;10205;49.678;6.560;2024-03-25T06:43:26;3.40;;;3.05;;
20090;SDS011;10205;49.678;6.560;2024-03-25T06:45:52;3.50;;;3.20;;
20090;SDS011;10205;49.678;6.560;2024-03-25T06:48:17;3.30;;;3.00;;
20090;SDS011;10205;49.678;6.560;2024-03-25T06:50:52;3.40;;;3.10;;
20090;SDS011;10205;49.678;6.560;2024-03-25T06:53:18;3.58;;;2.90;;
20090;SDS011;10205;49.678;6.560;2024-03-25T06:55:50;3.97;;;3.22;;
20090;SDS011;10205;49.678;6.560;2024-03-25T06:58:23;4.10;;;3.15;;
20090;SDS011;10205;49.678;6.560;2024-03-25T07:00:50;4.10;;;3.55;;
20090;SDS011;10205;49.678;6.560;2024-03-25T07:03:16;3.63;;;2.85;;
20090;SDS011;10205;49.678;6.560;2024-03-25T07:05:49;3.30;;;3.00;;
20090;SDS011;10205;49.678;6.560;2024-03-25T07:08:19;3.50;;;3.00;;
20090;SDS011;10205;49.678;6.560;2024-03-25T07:10:45;3.40;;;3.10;;
20090;SDS011;10205;49.678;6.560;2024-03-25T07:13:11;4.15;;;2.95;;
20090;SDS011;10205;49.678;6.560;2024-03-25T07:15:37;4.25;;;3.25;;
20090;SDS011;10205;49.678;6.560;2024-03-25T07:18:03;6.50;;;4.05;;
20090;SDS011;10205;49.678;6.560;2024-03-25T07:20:30;5.03;;;3.92;;
20090;SDS011;10205;49.678;6.560;2024-03-25T07:22:56;4.40;;;3.22;;
20090;SDS011;10205;49.678;6.560;2024-03-25T07:25:22;6.18;;;4.03;;
20090;SDS011;10205;49.678;6.560;2024-03-25T07:27:48;4.28;;;3.67;;
20090;SDS011;10205;49.678;6.560;2024-03-25T07:30:14;4.45;;;3.70;;
20090;SDS011;10205;49.678;6.560;2024-03-25T07:32:40;7.73;;;4.47;;
20090;SDS011;10205;49.678;6.560;2024-03-25T07:35:05;4.80;;;3.57;;
20090;SDS011;10205;49.678;6.560;2024-03-25T07:37:33;7.28;;;4.60;;
20090;SDS011;10205;49.678;6.560;2024-03-25T07:39:58;5.68;;;4.32;;
20090;SDS011;10205;49.678;6.560;2024-03-25T07:42:24;9.48;;;5.60;;
20090;SDS011;10205;49.678;6.560;2024-03-25T07:44:50;6.77;;;4.73;;
20090;SDS011;10205;49.678;6.560;2024-03-25T07:47:16;6.33;;;4.57;;
20090;SDS011;10205;49.678;6.560;2024-03-25T07:49:41;6.75;;;5.00;;
20090;SDS011;10205;49.678;6.560;2024-03-25T07:52:07;7.77;;;5.20;;
20090;SDS011;10205;49.678;6.560;2024-03-25T07:54:32;7.43;;;5.00;;
20090;SDS011;10205;49.678;6.560;2024-03-25T07:56:58;8.20;;;5.13;;
20090;SDS011;10205;49.678;6.560;2024-03-25T07:59:24;5.97;;;5.05;;
20090;SDS011;10205;49.678;6.560;2024-03-25T08:01:49;9.70;;;5.10;;
20090;SDS011;10205;49.678;6.560;2024-03-25T08:04:15;8.47;;;5.47;;
20090;SDS011;10205;49.678;6.560;2024-03-25T08:06:40;6.00;;;4.95;;
20090;SDS011;10205;49.678;6.560;2024-03-25T08:09:06;6.33;;;5.00;;
20090;SDS011;10205;49.678;6.560;2024-03-25T08:11:32;7.38;;;5.57;;
20090;SDS011;10205;49.678;6.560;2024-03-25T08:13:57;9.20;;;5.43;;
20090;SDS011;10205;49.678;6.560;2024-03-25T08:16:23;7.17;;;4.90;;
20090;SDS011;10205;49.678;6.560;2024-03-25T08:18:49;7.90;;;5.20;;
20090;SDS011;10205;49.678;6.560;2024-03-25T08:21:15;9.00;;;5.40;;
20090;SDS011;10205;49.678;6.560;2024-03-25T08:23:41;7.50;;;5.38;;
20090;SDS011;10205;49.678;6.560;2024-03-25T08:26:09;8.15;;;5.55;;
20090;SDS011;10205;49.678;6.560;2024-03-25T08:28:34;6.40;;;5.20;;
20090;SDS011;10205;49.678;6.560;2024-03-25T08:31:00;9.20;;;5.60;;
20090;SDS011;10205;49.678;6.560;2024-03-25T08:33:26;7.30;;;5.27;;
20090;SDS011;10205;49.678;6.560;2024-03-25T08:35:51;7.95;;;5.28;;
20090;SDS011;10205;49.678;6.560;2024-03-25T08:38:17;7.80;;;5.90;;
20090;SDS011;10205;49.678;6.560;2024-03-25T08:40:42;7.15;;;5.20;;
20090;SDS011;10205;49.678;6.560;2024-03-25T08:43:08;8.50;;;5.43;;
20090;SDS011;10205;49.678;6.560;2024-03-25T08:45:33;10.30;;;5.88;;
20090;SDS011;10205;49.678;6.560;2024-03-25T08:47:59;7.53;;;5.30;;
20090;SDS011;10205;49.678;6.560;2024-03-25T08:50:25;7.15;;;5.10;;
20090;SDS011;10205;49.678;6.560;2024-03-25T08:52:50;8.47;;;5.63;;
20090;SDS011;10205;49.678;6.560;2024-03-25T08:55:16;8.38;;;5.40;;
20090;SDS011;10205;49.678;6.560;2024-03-25T08:57:41;9.27;;;5.20;;
20090;SDS011;10205;49.678;6.560;2024-03-25T09:00:07;8.00;;;5.00;;
20090;SDS011;10205;49.678;6.560;2024-03-25T09:02:35;8.90;;;5.35;;
20090;SDS011;10205;49.678;6.560;2024-03-25T09:05:01;7.10;;;4.93;;
20090;SDS011;10205;49.678;6.560;2024-03-25T09:07:30;9.30;;;5.32;;
20090;SDS011;10205;49.678;6.560;2024-03-25T09:09:56;9.75;;;5.50;;
20090;SDS011;10205;49.678;6.560;2024-03-25T09:12:40;8.52;;;5.22;;
20090;SDS011;10205;49.678;6.560;2024-03-25T09:15:06;7.87;;;5.10;;
20090;SDS011;10205;49.678;6.560;2024-03-25T09:17:32;8.35;;;5.28;;
20090;SDS011;10205;49.678;6.560;2024-03-25T09:19:57;8.82;;;5.40;;
20090;SDS011;10205;49.678;6.560;2024-03-25T09:22:23;7.10;;;4.97;;
20090;SDS011;10205;49.678;6.560;2024-03-25T09:24:48;7.68;;;5.05;;
20090;SDS011;10205;49.678;6.560;2024-03-25T09:27:14;7.43;;;4.93;;
20090;SDS011;10205;49.678;6.560;2024-03-25T09:29:41;7.70;;;5.10;;
20090;SDS011;10205;49.678;6.560;2024-03-25T09:32:07;8.48;;;5.07;;
20090;SDS011;10205;49.678;6.560;2024-03-25T09:34:33;6.28;;;5.00;;
20090;SDS011;10205;49.678;6.560;2024-03-25T09:36:58;9.10;;;5.20;;
20090;SDS011;10205;49.678;6.560;2024-03-25T09:39:24;7.07;;;4.53;;
20090;SDS011;10205;49.678;6.560;2024-03-25T09:41:50;6.83;;;4.80;;
20090;SDS011;10205;49.678;6.560;2024-03-25T09:44:20;7.45;;;4.65;;
20090;SDS011;10205;49.678;6.560;2024-03-25T09:46:50;7.28;;;4.38;;
20090;SDS011;10205;49.678;6.560;2024-03-25T09:49:16;5.97;;;4.55;;
20090;SDS011;10205;49.678;6.560;2024-03-25T09:51:42;7.40;;;4.78;;
20090;SDS011;10205;49.678;6.560;2024-03-25T09:54:08;7.00;;;4.78;;
20090;SDS011;10205;49.678;6.560;2024-03-25T09:56:33;6.35;;;4.78;;
20090;SDS011;10205;49.678;6.560;2024-03-25T09:59:00;6.57;;;4.70;;
20090;SDS011;10205;49.678;6.560;2024-03-25T10:01:26;7.80;;;5.38;;
20090;SDS011;10205;49.678;6.560;2024-03-25T10:03:51;7.87;;;5.20;;
20090;SDS011;10205;49.678;6.560;2024-03-25T10:06:17;7.88;;;5.07;;
20090;SDS011;10205;49.678;6.560;2024-03-25T10:08:44;6.63;;;4.90;;
20090;SDS011;10205;49.678;6.560;2024-03-25T10:11:10;7.45;;;5.35;;
20090;SDS011;10205;49.678;6.560;2024-03-25T10:13:36;8.05;;;5.05;;
20090;SDS011;10205;49.678;6.560;2024-03-25T10:16:02;7.07;;;5.68;;
20090;SDS011;10205;49.678;6.560;2024-03-25T10:18:28;8.10;;;6.00;;
20090;SDS011;10205;49.678;6.560;2024-03-25T10:20:54;7.50;;;6.05;;
20090;SDS011;10205;49.678;6.560;2024-03-25T10:23:24;6.90;;;5.18;;
20090;SDS011;10205;49.678;6.560;2024-03-25T10:25:54;8.10;;;6.53;;
20090;SDS011;10205;49.678;6.560;2024-03-25T10:28:20;11.30;;;7.70;;
20090;SDS011;10205;49.678;6.560;2024-03-25T10:30:46;11.07;;;7.57;;
20090;SDS011;10205;49.678;6.560;2024-03-25T10:33:12;11.20;;;8.50;;
20090;SDS011;10205;49.678;6.560;2024-03-25T10:35:38;10.05;;;7.63;;
20090;SDS011;10205;49.678;6.560;2024-03-25T10:38:09;11.90;;;8.18;;
20090;SDS011;10205;49.678;6.560;2024-03-25T10:40:36;11.70;;;8.27;;
20090;SDS011;10205;49.678;6.560;2024-03-25T10:43:03;12.13;;;8.07;;
20090;SDS011;10205;49.678;6.560;2024-03-25T10:45:34;9.65;;;6.95;;
20090;SDS011;10205;49.678;6.560;2024-03-25T10:48:03;12.10;;;7.65;;
20090;SDS011;10205;49.678;6.560;2024-03-25T10:50:36;10.77;;;7.10;;
20090;SDS011;10205;49.678;6.560;2024-03-25T10:53:02;9.27;;;7.13;;
20090;SDS011;10205;49.678;6.560;2024-03-25T10:55:30;9.38;;;6.72;;
20090;SDS011;10205;49.678;6.560;2024-03-25T10:57:58;8.75;;;6.05;;
20090;SDS011;10205;49.678;6.560;2024-03-25T11:00:25;8.68;;;6.32;;
20090;SDS011;10205;49.678;6.560;2024-03-25T11:02:51;8.73;;;6.70;;
20090;SDS011;10205;49.678;6.560;2024-03-25T11:05:18;8.82;;;6.45;;
20090;SDS011;10205;49.678;6.560;2024-03-25T11:07:44;9.02;;;6.75;;
20090;SDS011;10205;49.678;6.560;2024-03-25T11:10:11;10.80;;;6.37;;
20090;SDS011;10205;49.678;6.560;2024-03-25T11:12:37;6.60;;;4.70;;
20090;SDS011;10205;49.678;6.560;2024-03-25T11:15:05;6.35;;;4.30;;
20090;SDS011;10205;49.678;6.560;2024-03-25T11:17:36;8.82;;;4.57;;
20090;SDS011;10205;49.678;6.560;2024-03-25T11:20:11;5.75;;;3.90;;
20090;SDS011;10205;49.678;6.560;2024-03-25T11:22:48;7.03;;;3.90;;
20090;SDS011;10205;49.678;6.560;2024-03-25T11:25:14;4.03;;;2.90;;
20090;SDS011;10205;49.678;6.560;2024-03-25T11:27:42;4.10;;;2.70;;
20090;SDS011;10205;49.678;6.560;2024-03-25T11:30:08;3.90;;;2.63;;
20090;SDS011;10205;49.678;6.560;2024-03-25T11:32:43;6.38;;;3.45;;
20090;SDS011;10205;49.678;6.560;2024-03-25T11:35:16;7.13;;;3.90;;
20090;SDS011;10205;49.678;6.560;2024-03-25T11:37:42;4.65;;;2.92;;
20090;SDS011;10205;49.678;6.560;2024-03-25T11:40:08;7.15;;;3.17;;
20090;SDS011;10205;49.678;6.560;2024-03-25T11:42:38;6.50;;;2.80;;
20090;SDS011;10205;49.678;6.560;2024-03-25T11:45:05;3.63;;;2.60;;
20090;SDS011;10205;49.678;6.560;2024-03-25T11:47:31;4.53;;;2.65;;
20090;SDS011;10205;49.678;6.560;2024-03-25T11:49:57;4.57;;;2.35;;
20090;SDS011;10205;49.678;6.560;2024-03-25T11:52:22;4.00;;;2.20;;
20090;SDS011;10205;49.678;6.560;2024-03-25T11:54:54;3.53;;;2.20;;
20090;SDS011;10205;49.678;6.560;2024-03-25T11:57:20;3.80;;;2.47;;
20090;SDS011;10205;49.678;6.560;2024-03-25T11:59:47;4.47;;;2.38;;
20090;SDS011;10205;49.678;6.560;2024-03-25T12:02:16;3.78;;;2.10;;
20090;SDS011;10205;49.678;6.560;2024-03-25T12:04:45;3.55;;;2.10;;
20090;SDS011;10205;49.678;6.560;2024-03-25T12:07:12;3.42;;;1.90;;
20090;SDS011;10205;49.678;6.560;2024-03-25T12:09:41;3.38;;;2.30;;
20090;SDS011;10205;49.678;6.560;2024-03-25T12:12:26;3.60;;;2.45;;
20090;SDS011;10205;49.678;6.560;2024-03-25T12:14:52;3.50;;;2.45;;
20090;SDS011;10205;49.678;6.560;2024-03-25T12:17:19;2.78;;;2.10;;
20090;SDS011;10205;49.678;6.560;2024-03-25T12:20:18;3.22;;;2.40;;
20090;SDS011;10205;49.678;6.560;2024-03-25T12:22:37;3.53;;;2.10;;
20090;SDS011;10205;49.678;6.560;2024-03-25T12:25:04;4.00;;;2.42;;
20090;SDS011;10205;49.678;6.560;2024-03-25T12:27:35;3.60;;;2.55;;
20090;SDS011;10205;49.678;6.560;2024-03-25T12:30:08;3.83;;;2.33;;
20090;SDS011;10205;49.678;6.560;2024-03-25T12:32:35;3.17;;;2.30;;
20090;SDS011;10205;49.678;6.560;2024-03-25T12:35:09;4.30;;;2.27;;
20090;SDS011;10205;49.678;6.560;2024-03-25T12:37:36;2.88;;;2.00;;
20090;SDS011;10205;49.678;6.560;2024-03-25T12:40:02;3.33;;;2.17;;
20090;SDS011;10205;49.678;6.560;2024-03-25T12:42:31;3.85;;;2.10;;
20090;SDS011;10205;49.678;6.560;2024-03-25T12:44:57;3.00;;;2.25;;
20090;SDS011;10205;49.678;6.560;2024-03-25T12:47:23;2.83;;;1.87;;
20090;SDS011;10205;49.678;6.560;2024-03-25T12:49:48;3.83;;;2.10;;
20090;SDS011;10205;49.678;6.560;2024-03-25T12:52:14;2.97;;;2.00;;
20090;SDS011;10205;49.678;6.560;2024-03-25T12:54:40;3.53;;;2.13;;
20090;SDS011;10205;49.678;6.560;2024-03-25T12:57:06;3.40;;;2.17;;
20090;SDS011;10205;49.678;6.560;2024-03-25T12:59:32;4.32;;;1.90;;
20090;SDS011;10205;49.678;6.560;2024-03-25T13:01:58;2.47;;;1.90;;
20090;SDS011;10205;49.678;6.560;2024-03-25T13:04:24;2.75;;;2.00;;
20090;SDS011;10205;49.678;6.560;2024-03-25T13:06:49;2.93;;;2.00;;
20090;SDS011;10205;49.678;6.560;2024-03-25T13:09:15;2.45;;;1.55;;
20090;SDS011;10205;49.678;6.560;2024-03-25T13:11:41;3.05;;;2.10;;
20090;SDS011;10205;49.678;6.560;2024-03-25T13:14:06;3.28;;;1.80;;
20090;SDS011;10205;49.678;6.560;2024-03-25T13:16:35;2.50;;;1.90;;
20090;SDS011;10205;49.678;6.560;2024-03-25T13:19:00;2.00;;;1.80;;
20090;SDS011;10205;49.678;6.560;2024-03-25T13:21:26;2.57;;;1.80;;
20090;SDS011;10205;49.678;6.560;2024-03-25T13:23:52;2.47;;;1.98;;
20090;SDS011;10205;49.678;6.560;2024-03-25T13:26:17;2.30;;;1.80;;
20090;SDS011;10205;49.678;6.560;2024-03-25T13:28:43;2.17;;;1.80;;
20090;SDS011;10205;49.678;6.560;2024-03-25T13:31:08;2.75;;;1.90;;
20090;SDS011;10205;49.678;6.560;2024-03-25T13:33:34;2.65;;;1.90;;
20090;SDS011;10205;49.678;6.560;2024-03-25T13:36:01;1.92;;;1.60;;
20090;SDS011;10205;49.678;6.560;2024-03-25T13:38:27;2.47;;;1.75;;
20090;SDS011;10205;49.678;6.560;2024-03-25T13:40:53;3.22;;;2.00;;
20090;SDS011;10205;49.678;6.560;2024-03-25T13:43:18;2.10;;;1.60;;
20090;SDS011;10205;49.678;6.560;2024-03-25T13:45:47;2.17;;;1.67;;
20090;SDS011;10205;49.678;6.560;2024-03-25T13:48:14;2.90;;;1.92;;
20090;SDS011;10205;49.678;6.560;2024-03-25T13:50:40;2.90;;;2.00;;
20090;SDS011;10205;49.678;6.560;2024-03-25T13:53:07;3.03;;;2.00;;
20090;SDS011;10205;49.678;6.560;2024-03-25T13:55:33;3.63;;;1.87;;
20090;SDS011;10205;49.678;6.560;2024-03-25T13:57:58;3.08;;;1.98;;
20090;SDS011;10205;49.678;6.560;2024-03-25T14:00:24;2.57;;;1.70;;
20090;SDS011;10205;49.678;6.560;2024-03-25T14:02:51;2.78;;;1.80;;
20090;SDS011;10205;49.678;6.560;2024-03-25T14:05:17;3.15;;;1.90;;
20090;SDS011;10205;49.678;6.560;2024-03-25T14:07:43;2.72;;;1.77;;
20090;SDS011;10205;49.678;6.560;2024-03-25T14:10:09;3.30;;;2.10;;
20090;SDS011;10205;49.678;6.560;2024-03-25T14:12:36;1.90;;;1.60;;
20090;SDS011;10205;49.678;6.560;2024-03-25T14:15:02;2.72;;;1.80;;
20090;SDS011;10205;49.678;6.560;2024-03-25T14:17:27;4.57;;;2.13;;
20090;SDS011;10205;49.678;6.560;2024-03-25T14:19:53;12.90;;;5.68;;
20090;SDS011;10205;49.678;6.560;2024-03-25T14:22:21;2.33;;;1.75;;
20090;SDS011;10205;49.678;6.560;2024-03-25T14:24:47;4.03;;;2.13;;
20090;SDS011;10205;49.678;6.560;2024-03-25T14:27:13;2.75;;;1.80;;
20090;SDS011;10205;49.678;6.560;2024-03-25T14:29:39;2.30;;;1.73;;
20090;SDS011;10205;49.678;6.560;2024-03-25T14:32:04;5.38;;;2.78;;
20090;SDS011;10205;49.678;6.560;2024-03-25T14:34:30;2.77;;;1.93;;
20090;SDS011;10205;49.678;6.560;2024-03-25T14:36:56;3.00;;;1.80;;
20090;SDS011;10205;49.678;6.560;2024-03-25T14:39:22;3.03;;;1.65;;
20090;SDS011;10205;49.678;6.560;2024-03-25T14:41:49;3.00;;;1.73;;
20090;SDS011;10205;49.678;6.560;2024-03-25T14:44:14;1.93;;;1.70;;
20090;SDS011;10205;49.678;6.560;2024-03-25T14:46:40;3.40;;;2.00;;